Annabella, Utah
Current Conditions -  °F | °C
As of 2:35 PM on Saturday 25 Oct 2014 (Local Time) from KDTA Reporting Station
Clear Clear  
Wind Chill: 76°   Ceiling: Unl
Heat Index: 77°   Visibility: 10mi
Dew Point: 33°   Wind: 29mph
Humidity: 20%   Direction: 220°SW
Pressure: 30.06"   Gusts: 36mph
Location:  38.71°N, 112.06°W
Report Text: KDTA 252035Z AUTO 22025G31KT 10SM CLR 25/00 A3006 RMK AO1 T02470004
Loading
Personal Weather Stations






























Interactive Weather Map New forecast layout! Learn more

10-Day Weather Forecast

Advertisements
Track Severe Weather on mobile